Time;durP1;ratioP1;P1;durP2;ratioP2;P2;SDS_P1;SDS_P2;PMS_P1;PMS_P2;Temp;Humidity;BMP_temperature;BMP_pressure;BME280_temperature;BME280_humidity;BME280_pressure;Samples;Min_cycle;Max_cycle;Signal;HPM_P1;HPM_P2
2023/10/16 00:02:45;;;;;;;4.03;3.10;;;6.10;75.40;;;;;;6231777;28;20238;-81
2023/10/16 00:05:51;;;;;;;3.73;2.90;;;6.10;75.30;;;;;;6233019;28;20231;-81
2023/10/16 00:09:00;;;;;;;3.00;2.90;;;6.00;75.40;;;;;;6230382;28;20234;-80
2023/10/16 00:12:09;;;;;;;4.87;3.17;;;6.00;75.40;;;;;;6229478;28;20767;-83
2023/10/16 00:15:16;;;;;;;3.20;2.90;;;6.10;75.20;;;;;;6231591;28;20234;-80
2023/10/16 00:18:23;;;;;;;3.10;2.90;;;6.00;75.20;;;;;;6225074;28;20227;-78
2023/10/16 00:21:28;;;;;;;3.10;2.67;;;6.00;75.20;;;;;;6250764;28;20245;-82
2023/10/16 00:24:32;;;;;;;4.73;3.13;;;6.00;75.30;;;;;;6236840;28;20246;-81
2023/10/16 00:27:37;;;;;;;3.37;3.10;;;6.00;75.40;;;;;;6252204;28;20708;-82
2023/10/16 00:30:41;;;;;;;3.93;3.10;;;5.90;75.50;;;;;;6241238;28;20248;-83
2023/10/16 00:33:45;;;;;;;7.43;3.63;;;5.90;75.70;;;;;;6247068;28;20250;-83
2023/10/16 00:36:49;;;;;;;3.80;3.20;;;5.90;75.70;;;;;;6229003;28;20246;-79
2023/10/16 00:39:53;;;;;;;4.80;3.27;;;5.90;75.50;;;;;;6228993;28;20272;-82
2023/10/16 00:42:56;;;;;;;3.70;3.13;;;5.80;75.70;;;;;;6239784;28;20240;-81
2023/10/16 00:46:05;;;;;;;3.23;3.00;;;5.80;75.80;;;;;;6231505;28;20323;-81
2023/10/16 00:49:12;;;;;;;6.53;3.20;;;5.80;75.70;;;;;;6248652;28;20250;-80
2023/10/16 00:52:17;;;;;;;4.90;3.10;;;5.80;75.90;;;;;;6245408;28;20237;-81
2023/10/16 00:55:22;;;;;;;5.27;3.07;;;5.70;76.00;;;;;;6237407;28;20239;-78
2023/10/16 00:58:29;;;;;;;3.03;2.70;;;5.70;76.10;;;;;;6239438;28;20246;-80
2023/10/16 01:01:32;;;;;;;3.50;3.20;;;5.70;76.20;;;;;;6234886;28;20247;-81
2023/10/16 01:04:37;;;;;;;5.40;3.20;;;5.70;76.10;;;;;;6242260;28;20307;-80
2023/10/16 01:07:40;;;;;;;4.23;2.87;;;5.70;76.10;;;;;;6226121;28;20255;-80
2023/10/16 01:10:48;;;;;;;3.63;3.37;;;5.70;76.10;;;;;;6230504;28;20242;-82
2023/10/16 01:13:51;;;;;;;3.50;3.30;;;5.60;76.20;;;;;;6239344;28;20236;-83
2023/10/16 01:16:55;;;;;;;5.07;3.27;;;5.60;76.40;;;;;;6235632;28;20245;-81
2023/10/16 01:19:59;;;;;;;3.53;2.90;;;5.60;76.50;;;;;;6240140;28;20310;-80
2023/10/16 01:23:07;;;;;;;2.97;2.63;;;5.60;76.50;;;;;;6234541;28;20238;-79
2023/10/16 01:26:11;;;;;;;3.33;3.00;;;5.60;76.50;;;;;;6246863;28;20231;-79
2023/10/16 01:29:15;;;;;;;5.43;3.47;;;5.60;76.30;;;;;;6239699;28;20227;-82
2023/10/16 01:32:18;;;;;;;3.30;3.00;;;5.60;76.40;;;;;;6234645;28;20237;-82
2023/10/16 01:35:21;;;;;;;3.50;3.20;;;5.60;76.20;;;;;;6248458;28;20247;-79
2023/10/16 01:38:27;;;;;;;3.70;3.10;;;5.60;76.40;;;;;;6260728;28;20226;-74
2023/10/16 01:41:30;;;;;;;5.43;3.13;;;5.60;76.50;;;;;;6256307;28;20238;-76
2023/10/16 01:44:33;;;;;;;4.03;3.20;;;5.60;76.40;;;;;;6254147;28;20312;-77
2023/10/16 01:47:36;;;;;;;3.43;3.23;;;5.60;76.50;;;;;;6268646;28;20250;-76
2023/10/16 01:50:40;;;;;;;4.17;3.50;;;5.60;76.50;;;;;;6248582;28;20364;-78
2023/10/16 01:53:47;;;;;;;7.00;3.57;;;5.50;76.60;;;;;;6258478;28;20245;-81
2023/10/16 01:56:50;;;;;;;3.37;2.77;;;5.50;76.80;;;;;;6262178;28;20238;-81
2023/10/16 01:59:53;;;;;;;3.07;2.80;;;5.50;76.80;;;;;;6265227;28;20440;-81
2023/10/16 02:02:57;;;;;;;8.60;3.47;;;5.50;76.70;;;;;;6261171;28;20230;-81
2023/10/16 02:06:00;;;;;;;7.87;3.77;;;5.50;76.70;;;;;;6245230;28;20218;-84
2023/10/16 02:09:12;;;;;;;4.20;3.13;;;5.50;77.00;;;;;;6259417;28;20257;-81
2023/10/16 02:12:16;;;;;;;3.70;3.40;;;5.50;77.20;;;;;;6245023;28;20236;-80
2023/10/16 02:15:21;;;;;;;3.37;3.13;;;5.50;77.20;;;;;;6253578;28;20224;-80
2023/10/16 02:18:27;;;;;;;4.87;3.00;;;5.40;77.30;;;;;;6244032;28;20238;-79
2023/10/16 02:21:40;;;;;;;4.10;2.90;;;5.40;77.30;;;;;;6248566;28;20234;-77
2023/10/16 02:24:48;;;;;;;4.07;3.50;;;5.50;77.20;;;;;;6276370;28;20222;-81
2023/10/16 02:27:54;;;;;;;5.17;3.33;;;5.40;77.20;;;;;;6273404;28;20231;-80
2023/10/16 02:31:00;;;;;;;4.10;3.40;;;5.30;77.30;;;;;;6263325;28;20227;-79
2023/10/16 02:34:12;;;;;;;3.47;3.00;;;5.30;77.40;;;;;;6285051;28;20400;-80
2023/10/16 02:37:16;;;;;;;3.10;2.90;;;5.30;77.50;;;;;;6282342;28;20227;-80
2023/10/16 02:40:25;;;;;;;5.17;3.40;;;5.30;77.60;;;;;;6286185;28;20309;-81
2023/10/16 02:43:29;;;;;;;3.93;3.37;;;5.30;77.40;;;;;;6262638;28;20228;-83
2023/10/16 02:46:34;;;;;;;3.73;3.43;;;5.30;77.50;;;;;;6271835;28;20230;-78
2023/10/16 02:49:47;;;;;;;3.50;3.30;;;5.30;77.60;;;;;;6262967;28;20238;-81
2023/10/16 02:52:52;;;;;;;5.27;3.03;;;5.30;77.60;;;;;;6263367;28;20232;-80
2023/10/16 02:56:05;;;;;;;5.97;3.20;;;5.30;77.70;;;;;;6249583;28;20227;-79
2023/10/16 02:59:11;;;;;;;3.83;3.53;;;5.30;77.90;;;;;;6257517;28;20264;-81
2023/10/16 03:02:17;;;;;;;3.60;3.30;;;5.30;77.70;;;;;;6282012;28;20257;-80
2023/10/16 03:05:24;;;;;;;5.97;3.70;;;5.30;77.80;;;;;;6271166;28;20249;-82
2023/10/16 03:08:30;;;;;;;8.70;3.57;;;5.20;77.90;;;;;;6259801;28;20238;-79
2023/10/16 03:11:35;;;;;;;6.33;3.43;;;5.20;77.90;;;;;;6257719;28;20354;-78
2023/10/16 03:14:46;;;;;;;6.07;3.50;;;5.20;77.90;;;;;;6263257;28;20253;-78
2023/10/16 03:17:50;;;;;;;3.97;3.60;;;5.20;78.00;;;;;;6228027;28;20294;-83
2023/10/16 03:21:05;;;;;;;3.00;2.90;;;5.20;77.90;;;;;;6245074;28;20249;-84
2023/10/16 03:24:09;;;;;;;5.27;3.10;;;5.20;78.10;;;;;;6241519;28;20235;-81
2023/10/16 03:27:27;;;;;;;3.57;3.27;;;5.20;78.00;;;;;;6242290;28;20226;-80
2023/10/16 03:30:30;;;;;;;9.17;3.70;;;5.10;77.90;;;;;;6255000;28;20239;-81
2023/10/16 03:33:35;;;;;;;3.70;3.50;;;5.20;77.90;;;;;;6246758;28;20348;-78
2023/10/16 03:36:41;;;;;;;3.43;3.20;;;5.20;77.80;;;;;;6250460;28;20231;-81
2023/10/16 03:39:46;;;;;;;4.17;3.60;;;5.20;77.80;;;;;;6245197;28;20253;-78
2023/10/16 03:42:51;;;;;;;4.90;3.47;;;5.10;78.00;;;;;;6252181;28;20262;-77
2023/10/16 03:45:54;;;;;;;5.40;3.10;;;5.10;78.10;;;;;;6251201;28;20242;-77
2023/10/16 03:48:58;;;;;;;4.83;3.47;;;5.10;77.90;;;;;;6262204;28;20284;-80
2023/10/16 03:52:02;;;;;;;4.93;3.17;;;5.10;78.10;;;;;;6254136;28;20229;-80
2023/10/16 03:55:22;;;;;;;6.77;2.80;;;5.10;78.40;;;;;;6262793;28;20238;-82
2023/10/16 03:58:27;;;;;;;6.73;2.90;;;5.00;78.40;;;;;;6214972;28;20706;-81
2023/10/16 04:01:37;;;;;;;3.77;3.47;;;5.00;78.50;;;;;;6215554;28;20742;-80
2023/10/16 04:04:40;;;;;;;4.97;3.23;;;5.00;78.40;;;;;;6203929;28;20240;-80
2023/10/16 04:07:43;;;;;;;5.77;3.60;;;5.00;78.60;;;;;;6212121;28;20245;-80
2023/10/16 04:10:48;;;;;;;3.80;2.90;;;5.00;78.70;;;;;;6216650;28;20235;-81
2023/10/16 04:13:53;;;;;;;5.80;3.27;;;5.00;78.70;;;;;;6220662;28;20246;-80
2023/10/16 04:16:55;;;;;;;3.57;3.17;;;5.00;78.70;;;;;;6227693;28;20265;-80
2023/10/16 04:20:30;;;;;;;4.37;3.97;;;5.00;78.90;;;;;;6229252;28;20237;-80
2023/10/16 04:23:29;;;;;;;4.03;3.00;;;5.00;78.90;;;;;;6209021;28;20239;-80
2023/10/16 04:33:23;;;;;;;5.80;3.33;;;5.00;78.80;;;;;;6236295;28;20237;-82
2023/10/16 04:43:19;;;;;;;4.10;3.47;;;4.90;79.20;;;;;;6269801;28;20272;-78
2023/10/16 04:46:23;;;;;;;7.67;3.20;;;4.90;79.30;;;;;;6274068;28;20341;-79
2023/10/16 04:49:28;;;;;;;4.83;4.20;;;4.80;79.30;;;;;;6257628;28;20237;-81
2023/10/16 04:56:04;;;;;;;9.73;4.07;;;4.70;79.60;;;;;;6239275;28;20743;-79
2023/10/16 04:59:12;;;;;;;5.70;3.23;;;4.80;79.70;;;;;;6254302;28;20235;-81
2023/10/16 05:02:19;;;;;;;7.23;3.37;;;4.80;79.50;;;;;;6252637;28;20264;-79
2023/10/16 05:05:32;;;;;;;3.13;2.97;;;4.80;79.60;;;;;;6249181;28;20246;-81
2023/10/16 05:08:49;;;;;;;3.87;3.40;;;4.80;79.60;;;;;;6243103;28;20238;-80
2023/10/16 05:15:41;;;;;;;3.87;3.40;;;4.80;79.70;;;;;;6193118;28;20250;-78
2023/10/16 05:18:48;;;;;;;3.07;2.90;;;4.80;79.50;;;;;;6247518;28;20275;-82
2023/10/16 05:22:09;;;;;;;3.20;3.00;;;4.80;79.50;;;;;;6218332;28;20240;-81
2023/10/16 06:15:38;;;;;;;4.87;3.90;;;4.90;79.50;;;;;;6245237;28;20333;-82
2023/10/16 06:18:41;;;;;;;5.07;3.50;;;5.00;79.50;;;;;;6240629;28;20894;-82
2023/10/16 06:21:46;;;;;;;4.83;3.30;;;4.90;79.60;;;;;;6248451;28;20240;-83
2023/10/16 06:24:53;;;;;;;4.33;3.60;;;4.90;79.70;;;;;;6239619;28;20234;-82
2023/10/16 06:27:56;;;;;;;4.10;3.13;;;4.90;79.50;;;;;;6242814;28;20248;-83
2023/10/16 06:30:59;;;;;;;4.73;3.67;;;5.00;79.60;;;;;;6246439;28;20667;-82
2023/10/16 06:34:05;;;;;;;3.87;3.10;;;5.00;79.50;;;;;;6246623;28;20368;-84
2023/10/16 06:37:16;;;;;;;3.80;3.50;;;5.00;79.30;;;;;;6247005;28;20223;-81
2023/10/16 06:40:25;;;;;;;4.50;3.60;;;5.10;79.20;;;;;;6254951;28;20558;-83
2023/10/16 06:43:29;;;;;;;3.67;3.47;;;5.10;79.00;;;;;;6257416;28;20245;-85
2023/10/16 06:46:37;;;;;;;4.13;3.80;;;5.20;78.90;;;;;;6259857;28;20677;-84
2023/10/16 06:49:40;;;;;;;5.27;3.70;;;5.30;79.00;;;;;;6253071;28;20230;-80
2023/10/16 06:52:45;;;;;;;5.67;3.50;;;5.30;78.90;;;;;;6253955;28;20234;-82
2023/10/16 06:55:50;;;;;;;4.27;3.73;;;5.30;78.80;;;;;;6248657;28;20234;-82
2023/10/16 06:58:55;;;;;;;4.00;3.30;;;5.30;78.70;;;;;;6247065;28;20230;-80
2023/10/16 07:02:00;;;;;;;5.93;3.90;;;5.40;78.50;;;;;;6250260;28;20234;-82
2023/10/16 07:05:05;;;;;;;5.00;3.63;;;5.40;78.50;;;;;;6247614;28;20239;-82
2023/10/16 07:08:09;;;;;;;7.50;3.87;;;5.50;78.20;;;;;;6257828;28;20264;-81
2023/10/16 07:11:18;;;;;;;4.37;3.80;;;5.50;78.30;;;;;;6249554;28;20823;-82
2023/10/16 07:14:23;;;;;;;5.47;3.50;;;5.50;78.20;;;;;;6237906;28;20250;-81
2023/10/16 07:17:28;;;;;;;4.40;3.70;;;5.50;78.40;;;;;;6247930;28;20234;-79
2023/10/16 07:20:31;;;;;;;5.77;4.03;;;5.60;78.30;;;;;;6248791;28;20310;-84
2023/10/16 07:23:39;;;;;;;5.70;3.73;;;5.70;78.00;;;;;;6241127;28;20328;-83
2023/10/16 07:26:45;;;;;;;4.37;3.57;;;5.80;77.80;;;;;;6246459;28;20237;-77
2023/10/16 07:29:48;;;;;;;3.80;3.57;;;6.00;77.30;;;;;;6245895;28;20234;-79
2023/10/16 07:32:54;;;;;;;4.23;3.70;;;6.10;76.90;;;;;;6251724;28;20235;-81
2023/10/16 07:35:59;;;;;;;3.83;3.50;;;6.10;76.90;;;;;;6235844;28;20237;-81
2023/10/16 07:39:03;;;;;;;6.33;3.63;;;6.30;76.60;;;;;;6245874;28;20235;-79
2023/10/16 07:42:10;;;;;;;4.23;3.90;;;6.40;76.40;;;;;;6239808;28;20240;-82
2023/10/16 07:45:13;;;;;;;6.57;3.90;;;6.50;76.00;;;;;;6248241;28;20238;-80
2023/10/16 07:48:21;;;;;;;4.33;4.00;;;6.60;75.50;;;;;;6241989;28;20301;-82
2023/10/16 07:51:26;;;;;;;4.73;3.20;;;6.70;75.00;;;;;;6233243;28;20246;-79
2023/10/16 07:54:29;;;;;;;4.10;3.73;;;6.70;75.00;;;;;;6245258;28;20238;-82
2023/10/16 07:57:35;;;;;;;4.27;3.87;;;6.80;75.00;;;;;;6237323;28;20237;-83
2023/10/16 08:00:42;;;;;;;4.33;3.90;;;6.80;74.80;;;;;;6239425;28;20239;-80
2023/10/16 08:03:49;;;;;;;5.43;3.83;;;6.90;74.60;;;;;;6234235;28;20249;-78
2023/10/16 08:06:55;;;;;;;4.20;3.90;;;7.00;74.10;;;;;;6237498;28;20237;-83
2023/10/16 08:10:28;;;;;;;5.50;3.90;;;7.00;74.20;;;;;;6237480;28;20334;-81
2023/10/16 08:13:24;;;;;;;4.50;4.10;;;7.10;74.20;;;;;;6236582;28;20281;-83
2023/10/16 08:16:27;;;;;;;8.03;4.20;;;7.20;74.20;;;;;;6248059;28;20246;-81
2023/10/16 08:19:34;;;;;;;3.90;3.53;;;7.20;73.80;;;;;;6250928;28;20241;-81
2023/10/16 08:22:37;;;;;;;3.63;3.43;;;7.30;73.50;;;;;;6257870;28;20322;-82
2023/10/16 08:25:41;;;;;;;3.53;3.30;;;7.40;73.40;;;;;;6253027;28;20239;-81
2023/10/16 08:28:46;;;;;;;6.33;3.83;;;7.40;73.40;;;;;;6250565;28;20244;-81
2023/10/16 08:32:37;;;;;;;4.03;3.63;;;7.50;73.30;;;;;;6254993;28;20242;-80
2023/10/16 08:35:17;;;;;;;4.60;4.00;;;7.50;73.20;;;;;;6259823;28;20732;-81
2023/10/16 08:38:20;;;;;;;3.80;3.07;;;7.60;72.70;;;;;;6269070;28;20264;-80
2023/10/16 08:41:42;;;;;;;7.70;3.77;;;7.70;73.00;;;;;;6274579;28;20302;-78
2023/10/16 08:44:51;;;;;;;3.27;3.10;;;7.80;72.30;;;;;;6269743;28;20233;-82
2023/10/16 08:47:54;;;;;;;3.67;3.37;;;7.90;72.40;;;;;;6250341;28;20238;-82
2023/10/16 08:50:58;;;;;;;6.33;3.30;;;8.00;72.20;;;;;;6252368;28;20316;-80
2023/10/16 08:54:03;;;;;;;3.60;3.40;;;8.10;71.90;;;;;;6267912;28;20256;-81
2023/10/16 08:57:07;;;;;;;5.60;3.03;;;8.20;71.40;;;;;;6266784;28;20235;-82
2023/10/16 09:00:22;;;;;;;2.87;2.67;;;8.30;71.50;;;;;;6264103;28;20238;-76
2023/10/16 09:03:26;;;;;;;4.73;3.60;;;8.30;71.30;;;;;;6267066;28;20239;-75
2023/10/16 09:06:34;;;;;;;3.83;3.20;;;8.40;71.00;;;;;;6268233;28;20336;-78
2023/10/16 09:09:41;;;;;;;3.30;3.00;;;8.60;71.50;;;;;;6267219;28;20322;-81
2023/10/16 09:12:54;;;;;;;3.40;3.10;;;8.80;70.60;;;;;;6248614;28;20223;-80
2023/10/16 09:16:00;;;;;;;3.47;3.07;;;8.90;69.90;;;;;;6245693;28;20235;-84
2023/10/16 09:19:07;;;;;;;7.27;3.20;;;8.90;69.80;;;;;;6242837;28;20235;-82
2023/10/16 09:22:10;;;;;;;5.27;3.30;;;9.00;69.20;;;;;;6243183;28;20239;-81
2023/10/16 09:25:15;;;;;;;4.20;2.87;;;9.10;69.00;;;;;;6234534;28;20754;-79
2023/10/16 09:28:36;;;;;;;3.63;2.77;;;9.10;69.10;;;;;;6242413;28;20723;-82
2023/10/16 09:31:47;;;;;;;4.10;3.37;;;9.20;68.90;;;;;;6232230;28;20250;-81
2023/10/16 09:34:52;;;;;;;3.30;2.97;;;9.30;67.80;;;;;;6243887;28;20654;-80
2023/10/16 09:38:10;;;;;;;3.00;2.80;;;9.30;68.20;;;;;;6241738;28;20238;-81
2023/10/16 09:41:38;;;;;;;3.67;3.27;;;9.50;67.90;;;;;;6251748;28;20230;-82
2023/10/16 09:44:44;;;;;;;4.53;2.90;;;9.60;66.80;;;;;;6230300;28;20263;-82
2023/10/16 09:47:51;;;;;;;3.53;3.23;;;9.80;66.20;;;;;;6233008;28;20231;-84
2023/10/16 09:50:56;;;;;;;5.57;3.00;;;9.90;66.30;;;;;;6228526;28;20238;-82
2023/10/16 09:54:00;;;;;;;3.33;3.10;;;10.00;65.60;;;;;;6259327;28;20238;-82
2023/10/16 09:57:09;;;;;;;4.73;2.87;;;10.10;65.40;;;;;;6258907;28;20297;-83
2023/10/16 10:00:28;;;;;;;5.80;2.70;;;10.30;65.00;;;;;;6248187;28;20234;-83
2023/10/16 10:03:36;;;;;;;3.50;2.77;;;10.60;65.00;;;;;;6251516;28;20234;-83
2023/10/16 10:06:45;;;;;;;3.20;2.90;;;10.60;63.60;;;;;;6242492;28;20918;-82
2023/10/16 10:09:53;;;;;;;3.40;3.00;;;10.80;63.90;;;;;;6239815;28;20235;-82
2023/10/16 10:13:02;;;;;;;3.33;2.80;;;10.70;63.90;;;;;;6239346;28;20660;-82
2023/10/16 10:16:14;;;;;;;3.13;2.80;;;10.90;63.60;;;;;;6234496;28;20234;-80
2023/10/16 10:19:31;;;;;;;4.50;2.63;;;11.00;62.40;;;;;;6249888;28;20305;-83
2023/10/16 10:22:35;;;;;;;5.77;3.20;;;10.90;62.20;;;;;;6243979;28;20231;-81
2023/10/16 10:25:39;;;;;;;3.60;3.07;;;10.70;62.00;;;;;;6245636;28;20254;-80
2023/10/16 10:28:45;;;;;;;4.03;2.70;;;10.50;63.20;;;;;;6230277;28;20238;-82
2023/10/16 10:31:50;;;;;;;2.60;2.50;;;10.60;62.60;;;;;;6245123;28;20860;-80
2023/10/16 10:35:26;;;;;;;4.10;2.63;;;10.70;62.90;;;;;;6241688;28;20321;-83
2023/10/16 10:38:30;;;;;;;4.33;3.00;;;10.90;62.90;;;;;;6220920;28;20231;-81
2023/10/16 10:41:47;;;;;;;3.07;2.83;;;11.10;62.20;;;;;;6241294;28;20273;-82
2023/10/16 10:45:21;;;;;;;3.63;2.60;;;11.50;61.30;;;;;;6236582;28;20270;-80
2023/10/16 10:48:27;;;;;;;3.37;2.60;;;11.80;61.10;;;;;;6243861;28;20268;-82
2023/10/16 10:51:35;;;;;;;2.80;2.70;;;11.90;60.00;;;;;;6256065;28;20240;-84
2023/10/16 10:54:42;;;;;;;2.90;2.67;;;12.00;59.80;;;;;;6236568;28;20230;-81
2023/10/16 10:57:48;;;;;;;7.53;2.70;;;12.00;60.30;;;;;;6238980;28;20229;-80
2023/10/16 11:01:00;;;;;;;2.90;2.73;;;12.20;59.70;;;;;;6239602;28;20241;-80
2023/10/16 11:04:09;;;;;;;2.47;2.37;;;12.20;59.80;;;;;;6239816;28;20364;-82
2023/10/16 11:07:23;;;;;;;2.47;2.30;;;12.20;58.50;;;;;;6227555;28;20242;-83
2023/10/16 11:10:26;;;;;;;6.10;2.33;;;12.00;58.50;;;;;;6247403;28;20239;-82
2023/10/16 11:13:30;;;;;;;3.23;2.40;;;11.50;59.10;;;;;;6236688;28;20266;-82
2023/10/16 11:16:33;;;;;;;6.53;2.70;;;11.50;59.70;;;;;;6229676;28;20705;-81
2023/10/16 11:19:47;;;;;;;3.57;2.50;;;11.50;59.30;;;;;;6239631;28;20297;-83
2023/10/16 11:22:56;;;;;;;2.90;2.60;;;11.10;60.50;;;;;;6246212;28;20260;-79
2023/10/16 11:26:00;;;;;;;2.60;2.50;;;11.00;61.20;;;;;;6237813;28;20326;-81
2023/10/16 11:29:06;;;;;;;2.63;2.43;;;11.00;61.20;;;;;;6236472;28;20234;-82
2023/10/16 11:32:14;;;;;;;4.23;2.50;;;10.90;61.50;;;;;;6239944;28;20329;-82
2023/10/16 11:35:19;;;;;;;3.67;3.00;;;10.90;61.80;;;;;;6237058;28;20238;-80
2023/10/16 11:38:29;;;;;;;2.43;2.33;;;11.00;61.70;;;;;;6248565;28;20234;-79
2023/10/16 11:41:33;;;;;;;3.07;2.60;;;10.90;62.10;;;;;;6253839;28;20241;-80
2023/10/16 11:44:39;;;;;;;4.50;2.60;;;10.80;62.40;;;;;;6243534;28;20245;-83
2023/10/16 11:47:43;;;;;;;3.13;2.57;;;10.80;61.80;;;;;;6236167;28;20268;-83
2023/10/16 11:50:50;;;;;;;2.73;2.53;;;10.90;61.80;;;;;;6243502;28;20315;-81
2023/10/16 11:54:02;;;;;;;3.20;2.83;;;11.10;61.20;;;;;;6229186;28;20234;-82
2023/10/16 11:57:06;;;;;;;3.33;2.67;;;11.30;60.70;;;;;;6250706;28;20997;-83
2023/10/16 12:00:15;;;;;;;2.70;2.50;;;11.40;60.10;;;;;;6259582;28;20226;-82
2023/10/16 12:03:19;;;;;;;5.13;2.40;;;11.50;60.20;;;;;;6233947;28;20625;-82
2023/10/16 12:06:22;;;;;;;2.70;2.50;;;11.80;59.40;;;;;;6240562;28;20243;-83
2023/10/16 12:09:36;;;;;;;2.57;2.47;;;11.90;59.70;;;;;;6250939;28;20242;-82
2023/10/16 12:12:40;;;;;;;2.40;2.30;;;11.90;59.60;;;;;;6239693;28;20283;-82
2023/10/16 12:15:46;;;;;;;6.30;2.40;;;11.70;59.50;;;;;;6248303;28;20245;-81
2023/10/16 12:18:52;;;;;;;3.13;2.20;;;11.60;58.60;;;;;;6249612;28;20727;-81
2023/10/16 12:21:56;;;;;;;2.83;2.63;;;11.40;59.00;;;;;;6244055;28;20238;-82
2023/10/16 12:25:00;;;;;;;2.50;2.33;;;11.20;59.80;;;;;;6249043;28;20254;-82
2023/10/16 12:28:07;;;;;;;2.63;2.43;;;11.00;60.30;;;;;;6242965;28;20273;-84
2023/10/16 12:31:12;;;;;;;2.30;2.20;;;11.00;60.50;;;;;;6261783;28;20245;-84
2023/10/16 12:34:17;;;;;;;3.13;2.10;;;11.10;60.20;;;;;;6253150;28;20234;-81
2023/10/16 12:37:22;;;;;;;2.97;2.30;;;11.10;60.00;;;;;;6220943;28;20243;-82
2023/10/16 12:40:34;;;;;;;2.23;2.07;;;11.10;60.10;;;;;;6240693;28;20234;-81
2023/10/16 12:43:37;;;;;;;2.50;2.30;;;11.10;60.30;;;;;;6263663;28;20242;-81
2023/10/16 12:46:43;;;;;;;4.63;2.53;;;10.90;61.70;;;;;;6243661;28;20235;-80
2023/10/16 12:49:46;;;;;;;3.90;2.40;;;10.80;62.70;;;;;;6233848;28;20254;-80
2023/10/16 12:52:49;;;;;;;2.87;2.67;;;10.60;62.70;;;;;;6243257;28;20725;-80
2023/10/16 12:55:55;;;;;;;3.87;2.20;;;10.50;63.50;;;;;;6236222;28;20384;-79
2023/10/16 12:58:58;;;;;;;2.50;2.37;;;10.30;63.50;;;;;;6235318;28;20241;-83
2023/10/16 13:02:04;;;;;;;3.63;2.73;;;10.30;63.70;;;;;;6237209;28;20266;-83
2023/10/16 13:05:07;;;;;;;2.60;2.40;;;10.20;63.70;;;;;;6229856;28;20836;-81
2023/10/16 13:08:11;;;;;;;3.87;2.50;;;10.30;63.80;;;;;;6228748;28;20239;-82
2023/10/16 13:11:17;;;;;;;2.80;2.60;;;10.30;64.20;;;;;;6246289;28;20230;-81
2023/10/16 13:14:20;;;;;;;2.53;2.33;;;10.30;64.70;;;;;;6232699;28;20235;-80
2023/10/16 13:17:25;;;;;;;2.63;2.40;;;10.30;65.00;;;;;;6241243;28;20301;-78
2023/10/16 13:20:28;;;;;;;2.33;2.13;;;10.30;64.80;;;;;;6242390;28;20743;-80
2023/10/16 13:23:34;;;;;;;5.90;2.23;;;10.30;64.40;;;;;;6248338;28;20718;-80
2023/10/16 13:26:52;;;;;;;2.83;2.50;;;10.30;64.30;;;;;;6243885;28;20238;-80
2023/10/16 13:29:55;;;;;;;2.63;2.47;;;10.30;64.50;;;;;;6243519;28;20238;-84
2023/10/16 13:33:06;;;;;;;2.80;2.60;;;10.40;64.30;;;;;;6248201;28;20313;-84
2023/10/16 13:36:12;;;;;;;2.20;2.20;;;10.40;64.40;;;;;;6245009;28;20823;-82
2023/10/16 13:39:19;;;;;;;2.43;2.33;;;10.40;64.00;;;;;;6243815;28;20797;-80
2023/10/16 13:42:24;;;;;;;2.80;2.50;;;10.50;63.70;;;;;;6241869;28;20249;-80
2023/10/16 13:45:27;;;;;;;4.63;2.83;;;10.50;63.90;;;;;;6241664;28;20868;-83
2023/10/16 13:48:31;;;;;;;2.87;2.60;;;10.40;63.90;;;;;;6240036;28;20238;-80
2023/10/16 13:51:40;;;;;;;2.80;2.67;;;10.40;64.20;;;;;;6241177;28;20312;-80
2023/10/16 13:54:44;;;;;;;2.60;2.40;;;10.40;64.10;;;;;;6229662;28;20245;-79
2023/10/16 13:57:51;;;;;;;3.87;2.50;;;10.50;64.80;;;;;;6235483;28;20369;-82
2023/10/16 14:00:54;;;;;;;2.30;2.30;;;10.60;64.20;;;;;;6238637;28;20872;-83
2023/10/16 14:03:58;;;;;;;2.27;2.17;;;10.60;64.00;;;;;;6256657;28;20229;-76
2023/10/16 14:07:07;;;;;;;4.53;2.63;;;10.70;63.90;;;;;;6240238;28;20314;-80
2023/10/16 14:10:13;;;;;;;2.87;2.60;;;10.70;63.90;;;;;;6230390;28;20698;-82
2023/10/16 14:13:26;;;;;;;2.60;2.50;;;10.80;63.90;;;;;;6226297;28;20597;-76
2023/10/16 14:16:32;;;;;;;2.27;2.20;;;10.70;63.80;;;;;;6242456;28;20277;-86
2023/10/16 14:19:36;;;;;;;3.70;2.30;;;10.70;63.70;;;;;;6231394;28;20227;-82
2023/10/16 14:22:47;;;;;;;3.27;2.20;;;10.80;63.50;;;;;;6237929;28;20227;-79
2023/10/16 14:25:57;;;;;;;2.57;2.47;;;10.80;63.20;;;;;;6238220;28;20238;-80
2023/10/16 14:29:03;;;;;;;2.50;2.30;;;10.70;63.70;;;;;;6235984;28;20234;-82
2023/10/16 14:32:09;;;;;;;2.47;2.37;;;10.80;64.00;;;;;;6238413;28;20245;-84
2023/10/16 14:35:12;;;;;;;2.37;2.27;;;10.70;63.70;;;;;;6238657;28;20231;-80
2023/10/16 14:38:19;;;;;;;2.33;2.33;;;10.60;63.90;;;;;;6233494;28;20321;-82
2023/10/16 14:41:23;;;;;;;2.33;2.30;;;10.50;64.00;;;;;;6219563;28;20394;-79
2023/10/16 14:44:28;;;;;;;2.70;2.50;;;10.50;63.90;;;;;;6231458;28;20243;-83
2023/10/16 14:47:36;;;;;;;2.53;2.40;;;10.50;63.60;;;;;;6238046;28;20302;-79
2023/10/16 14:50:39;;;;;;;4.73;2.70;;;10.50;63.20;;;;;;6242178;28;20828;-81
2023/10/16 14:53:44;;;;;;;2.87;2.67;;;10.40;62.50;;;;;;6243446;28;20242;-82
2023/10/16 14:56:49;;;;;;;4.03;2.80;;;10.40;62.30;;;;;;6239923;28;20237;-79
2023/10/16 14:59:53;;;;;;;2.97;2.63;;;10.50;61.70;;;;;;6248212;28;20234;-78
2023/10/16 15:02:57;;;;;;;2.50;2.40;;;10.50;61.80;;;;;;6241583;28;20245;-82
2023/10/16 15:06:01;;;;;;;2.40;2.30;;;10.50;61.80;;;;;;6247368;28;20420;-84
2023/10/16 15:09:09;;;;;;;2.50;2.40;;;10.40;62.40;;;;;;6254438;28;20261;-77
2023/10/16 15:12:12;;;;;;;2.50;2.30;;;10.40;62.50;;;;;;6234592;28;20226;-77
2023/10/16 15:15:17;;;;;;;3.40;2.30;;;10.30;62.70;;;;;;6227993;28;20234;-80
2023/10/16 15:18:21;;;;;;;2.50;2.40;;;10.10;62.70;;;;;;6228639;28;20361;-82
2023/10/16 15:21:24;;;;;;;2.60;2.40;;;10.00;63.00;;;;;;6245281;28;20294;-83
2023/10/16 15:24:28;;;;;;;2.87;2.67;;;9.90;63.40;;;;;;6243486;28;20235;-80
2023/10/16 15:27:34;;;;;;;2.20;2.20;;;9.80;63.50;;;;;;6242360;28;20267;-83
2023/10/16 15:30:39;;;;;;;2.50;2.40;;;9.70;63.70;;;;;;6246930;28;20313;-80
2023/10/16 15:33:43;;;;;;;3.03;2.90;;;9.70;63.80;;;;;;6240761;28;20249;-77
2023/10/16 15:36:49;;;;;;;2.90;2.60;;;9.60;63.90;;;;;;6240364;28;20314;-84
2023/10/16 15:39:52;;;;;;;2.50;2.30;;;9.60;63.80;;;;;;6242191;28;20246;-79
2023/10/16 15:42:59;;;;;;;2.80;2.60;;;9.50;63.70;;;;;;6241035;28;20237;-81
2023/10/16 15:46:04;;;;;;;2.50;2.40;;;9.50;64.00;;;;;;6246512;28;20242;-82
2023/10/16 15:49:07;;;;;;;2.60;2.40;;;9.40;64.10;;;;;;6238535;28;20720;-78
2023/10/16 15:52:10;;;;;;;2.87;2.77;;;9.40;64.40;;;;;;6212445;28;20238;-80
2023/10/16 15:55:17;;;;;;;2.53;2.43;;;9.30;64.60;;;;;;6245766;28;20242;-79
2023/10/16 15:58:21;;;;;;;2.80;2.70;;;9.20;64.70;;;;;;6242104;28;20231;-82
2023/10/16 16:01:26;;;;;;;3.43;2.90;;;9.20;64.90;;;;;;6252607;28;20248;-81
2023/10/16 16:04:30;;;;;;;2.90;2.67;;;9.10;65.10;;;;;;6240107;28;20292;-82
2023/10/16 16:07:35;;;;;;;3.67;2.60;;;9.00;65.40;;;;;;6235508;28;20738;-79
2023/10/16 16:10:40;;;;;;;2.70;2.60;;;9.00;65.50;;;;;;6232908;28;20238;-81
2023/10/16 16:13:44;;;;;;;2.97;2.70;;;9.00;65.90;;;;;;6234593;28;20252;-82
2023/10/16 16:16:51;;;;;;;3.30;3.10;;;8.90;66.00;;;;;;6240265;28;20261;-79
2023/10/16 16:19:57;;;;;;;3.00;2.80;;;8.90;66.30;;;;;;6238779;28;20234;-83
2023/10/16 16:23:02;;;;;;;3.10;3.00;;;8.90;66.50;;;;;;6226448;28;20315;-79
2023/10/16 16:26:26;;;;;;;3.07;2.87;;;8.80;66.40;;;;;;6215975;28;20259;-81
2023/10/16 16:29:29;;;;;;;3.93;3.63;;;8.70;66.50;;;;;;6212084;28;20231;-80
2023/10/16 16:32:34;;;;;;;2.80;2.70;;;8.60;66.80;;;;;;6224937;28;20249;-83
2023/10/16 16:35:37;;;;;;;2.90;2.80;;;8.60;66.90;;;;;;6224965;28;20238;-81
2023/10/16 16:38:40;;;;;;;3.70;3.43;;;8.50;67.10;;;;;;6204044;28;20237;-82
2023/10/16 16:41:43;;;;;;;3.23;2.87;;;8.50;67.50;;;;;;6232513;28;20300;-80
2023/10/16 16:44:47;;;;;;;3.03;2.83;;;8.40;67.40;;;;;;6249375;28;20308;-79
2023/10/16 16:47:52;;;;;;;3.33;3.20;;;8.40;67.50;;;;;;6246582;28;20245;-81
2023/10/16 16:50:56;;;;;;;3.50;3.33;;;8.40;67.90;;;;;;6238365;28;20358;-81
2023/10/16 16:53:59;;;;;;;4.13;3.87;;;8.30;67.80;;;;;;6240836;28;20299;-80
2023/10/16 16:57:03;;;;;;;3.60;3.50;;;8.40;67.90;;;;;;6249401;28;20238;-82
2023/10/16 17:00:10;;;;;;;3.13;3.13;;;8.30;68.10;;;;;;6225178;28;20330;-82
2023/10/16 17:03:15;;;;;;;3.37;3.00;;;8.40;68.40;;;;;;6238326;28;20297;-80
2023/10/16 17:06:18;;;;;;;3.90;3.60;;;8.30;68.60;;;;;;6244006;28;20246;-82
2023/10/16 17:09:24;;;;;;;3.40;3.30;;;8.30;68.50;;;;;;6249254;28;20276;-79
2023/10/16 17:12:27;;;;;;;3.33;3.23;;;8.40;68.50;;;;;;6249775;28;20730;-81
2023/10/16 17:15:33;;;;;;;3.37;3.13;;;8.40;68.40;;;;;;6234816;28;20792;-81
2023/10/16 17:18:38;;;;;;;3.40;3.20;;;8.40;68.60;;;;;;6242132;28;20382;-82
2023/10/16 17:21:43;;;;;;;3.40;3.30;;;8.50;68.70;;;;;;6220156;28;20235;-84
2023/10/16 17:24:46;;;;;;;3.23;3.03;;;8.40;68.70;;;;;;6233127;28;20848;-84
2023/10/16 17:27:51;;;;;;;3.27;3.07;;;8.50;68.70;;;;;;6249489;28;20248;-83
2023/10/16 17:30:54;;;;;;;3.30;3.10;;;8.40;68.90;;;;;;6248993;28;20231;-84